Time;durP1;ratioP1;P1;durP2;ratioP2;P2;SDS_P1;SDS_P2;PMS_P1;PMS_P2;Temp;Humidity;BMP_temperature;BMP_pressure;BME280_temperature;BME280_humidity;BME280_pressure;Samples;Min_cycle;Max_cycle;Signal;HPM_P1;HPM_P2
2023/06/19 00:00:51;;;;;;;;;;;;;;;13.96;86.02;100398.13;102331;280;112019;-58
2023/06/19 00:03:42;;;;;;;;;;;;;;;13.87;86.19;100401.02;102315;280;97251;-55
2023/06/19 00:06:16;;;;;;;;;;;;;;;13.82;86.16;100402.77;102340;280;97708;-55
2023/06/19 00:08:50;;;;;;;;;;;;;;;13.78;86.11;100402.14;102360;280;120841;-58
2023/06/19 00:11:25;;;;;;;;;;;;;;;13.72;86.29;100401.31;102331;280;105994;-58
2023/06/19 00:14:01;;;;;;;;;;;;;;;13.68;86.37;100403.49;102369;280;114620;-56
2023/06/19 00:16:34;;;;;;;;;;;;;;;13.62;86.24;100404.77;102366;280;96352;-56
2023/06/19 00:19:11;;;;;;;;;;;;;;;13.57;86.36;100404.40;102393;280;97474;-57
2023/06/19 00:21:43;;;;;;;;;;;;;;;13.55;86.29;100406.80;102395;280;118838;-57
2023/06/19 00:24:17;;;;;;;;;;;;;;;13.54;86.40;100405.79;102426;280;105412;-54
2023/06/19 00:27:02;;;;;;;;;;;;;;;13.51;86.47;100405.57;102401;280;113274;-57
2023/06/19 00:29:37;;;;;;;;;;;;;;;13.48;86.39;100411.08;102406;280;93592;-58
2023/06/19 00:32:08;;;;;;;;;;;;;;;13.44;86.54;100413.80;102375;280;98439;-58
2023/06/19 00:34:46;;;;;;;;;;;;;;;13.37;86.65;100413.66;102364;280;119810;-55
2023/06/19 00:37:22;;;;;;;;;;;;;;;13.31;86.56;100409.98;102323;280;106145;-55
2023/06/19 00:39:59;;;;;;;;;;;;;;;13.25;86.63;100411.02;102295;280;114290;-56
2023/06/19 00:42:35;;;;;;;;;;;;;;;13.19;86.85;100411.13;102286;280;96298;-56
2023/06/19 00:45:10;;;;;;;;;;;;;;;13.13;87.01;100415.29;102316;280;98335;-55
2023/06/19 00:47:45;;;;;;;;;;;;;;;13.11;86.91;100412.70;102301;280;119701;-57
2023/06/19 00:50:21;;;;;;;;;;;;;;;13.07;87.05;100419.73;102320;280;105519;-59
2023/06/19 00:52:56;;;;;;;;;;;;;;;13.04;87.11;100422.45;102372;280;114508;-57
2023/06/19 00:55:32;;;;;;;;;;;;;;;13.00;87.21;100424.78;102370;280;96616;-57
2023/06/19 00:58:07;;;;;;;;;;;;;;;12.95;87.09;100424.39;102370;280;97241;-58
2023/06/19 01:00:44;;;;;;;;;;;;;;;12.92;87.18;100421.09;102342;280;121569;-58
2023/06/19 01:03:19;;;;;;;;;;;;;;;12.92;87.37;100418.08;102389;280;106403;-56
2023/06/19 01:06:00;;;;;;;;;;;;;;;12.95;87.43;100413.63;102395;280;115046;-55
2023/06/19 01:08:49;;;;;;;;;;;;;;;12.92;87.57;100414.91;102374;280;95613;-56
2023/06/19 01:11:24;;;;;;;;;;;;;;;12.86;87.63;100410.05;102419;280;97222;-55
2023/06/19 01:14:00;;;;;;;;;;;;;;;12.79;87.48;100406.86;102415;280;120778;-56
2023/06/19 01:16:32;;;;;;;;;;;;;;;12.75;87.66;100406.21;102310;280;105715;-56
2023/06/19 01:19:11;;;;;;;;;;;;;;;12.74;87.53;100405.38;102296;280;114805;-56
2023/06/19 01:21:43;;;;;;;;;;;;;;;12.70;87.51;100406.30;102300;280;97203;-57
2023/06/19 01:24:21;;;;;;;;;;;;;;;12.65;87.67;100407.64;102321;280;98338;-55
2023/06/19 01:26:56;;;;;;;;;;;;;;;12.60;87.78;100404.61;102293;280;119526;-55
2023/06/19 01:29:33;;;;;;;;;;;;;;;12.58;87.97;100400.23;102376;280;105788;-55
2023/06/19 01:32:07;;;;;;;;;;;;;;;12.57;87.99;100402.57;102314;280;114687;-56
2023/06/19 01:34:41;;;;;;;;;;;;;;;12.55;88.01;100407.39;102404;280;96928;-55
2023/06/19 01:37:14;;;;;;;;;;;;;;;12.53;88.12;100403.66;102324;280;97745;-55
2023/06/19 01:39:50;;;;;;;;;;;;;;;12.52;88.22;100402.37;102371;280;121433;-58
2023/06/19 01:42:28;;;;;;;;;;;;;;;12.50;88.11;100405.63;102300;280;105264;-58
2023/06/19 01:45:03;;;;;;;;;;;;;;;12.46;88.27;100408.35;102352;280;114598;-58
2023/06/19 01:47:36;;;;;;;;;;;;;;;12.40;88.12;100412.03;102325;280;95443;-58
2023/06/19 01:50:09;;;;;;;;;;;;;;;12.35;88.14;100414.38;102247;281;99348;-55
2023/06/19 01:52:45;;;;;;;;;;;;;;;12.32;88.13;100411.91;102360;280;119749;-57
2023/06/19 01:55:20;;;;;;;;;;;;;;;12.28;88.04;100406.63;102362;280;103846;-55
2023/06/19 01:57:57;;;;;;;;;;;;;;;12.23;88.21;100404.60;102407;280;113521;-57
2023/06/19 02:00:35;;;;;;;;;;;;;;;12.21;88.27;100401.21;102388;280;96396;-58
2023/06/19 02:03:05;;;;;;;;;;;;;;;12.19;88.14;100402.72;102347;269;97806;-55
2023/06/19 02:05:42;;;;;;;;;;;;;;;12.18;88.10;100401.45;102236;280;120153;-55
2023/06/19 02:08:19;;;;;;;;;;;;;;;12.19;88.34;100403.14;102336;280;106298;-57
2023/06/19 02:10:53;;;;;;;;;;;;;;;12.24;88.48;100403.70;102294;280;115006;-56
2023/06/19 02:13:30;;;;;;;;;;;;;;;12.25;88.51;100402.70;102321;280;96277;-56
2023/06/19 02:16:08;;;;;;;;;;;;;;;12.20;88.55;100404.45;102397;280;97458;-56
2023/06/19 02:18:44;;;;;;;;;;;;;;;12.19;88.40;100406.92;102398;280;120555;-57
2023/06/19 02:21:21;;;;;;;;;;;;;;;12.19;88.41;100407.42;102364;280;105588;-57
2023/06/19 02:23:55;;;;;;;;;;;;;;;12.15;88.41;100409.84;102413;280;114341;-56
2023/06/19 02:26:28;;;;;;;;;;;;;;;12.13;88.51;100411.92;102435;280;95552;-56
2023/06/19 02:29:13;;;;;;;;;;;;;;;12.13;88.41;100416.17;102401;280;98049;-58
2023/06/19 02:31:53;;;;;;;;;;;;;;;12.09;88.67;100418.23;102408;280;121161;-58
2023/06/19 02:34:30;;;;;;;;;;;;;;;12.05;88.65;100418.20;102397;280;105745;-57
2023/06/19 02:37:01;;;;;;;;;;;;;;;12.03;88.72;100416.10;102367;280;113152;-57
2023/06/19 02:39:34;;;;;;;;;;;;;;;12.02;88.76;100415.43;102215;280;95993;-58
2023/06/19 02:42:07;;;;;;;;;;;;;;;12.05;88.94;100417.77;102224;280;97776;-57
2023/06/19 02:44:45;;;;;;;;;;;;;;;12.10;89.16;100413.95;102399;280;120443;-58
2023/06/19 02:47:19;;;;;;;;;;;;;;;12.11;89.33;100412.91;102397;280;105145;-58
2023/06/19 02:49:50;;;;;;;;;;;;;;;12.09;89.29;100409.19;102376;280;113883;-57
2023/06/19 02:52:30;;;;;;;;;;;;;;;12.12;89.55;100412.32;102377;280;95071;-57
2023/06/19 02:55:07;;;;;;;;;;;;;;;12.21;89.62;100409.42;102363;280;97840;-57
2023/06/19 02:57:41;;;;;;;;;;;;;;;12.21;89.57;100405.92;102427;268;120781;-57
2023/06/19 03:00:15;;;;;;;;;;;;;;;12.23;89.61;100409.48;102367;280;105041;-55
2023/06/19 03:02:48;;;;;;;;;;;;;;;12.28;89.68;100412.48;102414;280;112258;-56
2023/06/19 03:05:17;;;;;;;;;;;;;;;12.35;89.88;100416.55;102234;280;96447;-55
2023/06/19 03:07:48;;;;;;;;;;;;;;;12.39;89.83;100415.03;102391;280;98391;-56
2023/06/19 03:10:23;;;;;;;;;;;;;;;12.45;89.87;100421.05;102387;280;119972;-56
2023/06/19 03:12:58;;;;;;;;;;;;;;;12.49;89.89;100425.95;102362;280;105937;-55
2023/06/19 03:15:37;;;;;;;;;;;;;;;12.52;89.82;100425.30;102374;280;114594;-55
2023/06/19 03:18:15;;;;;;;;;;;;;;;12.57;89.86;100423.58;101888;280;600970;-59
2023/06/19 03:20:49;;;;;;;;;;;;;;;12.62;90.01;100429.60;102329;300;98337;-58
2023/06/19 03:23:26;;;;;;;;;;;;;;;12.73;89.96;100428.10;102410;280;119729;-58
2023/06/19 03:26:04;;;;;;;;;;;;;;;12.88;89.91;100424.83;102329;280;104814;-59
2023/06/19 03:28:35;;;;;;;;;;;;;;;13.19;89.82;100432.02;102360;280;113806;-58
2023/06/19 03:31:11;;;;;;;;;;;;;;;13.61;89.24;100431.80;102333;280;96636;-57
2023/06/19 03:33:44;;;;;;;;;;;;;;;13.78;89.14;100432.06;102382;280;96797;-58
2023/06/19 03:36:23;;;;;;;;;;;;;;;14.29;88.87;100433.13;102333;280;121537;-59
2023/06/19 03:38:58;;;;;;;;;;;;;;;15.55;87.96;100429.73;102349;280;105767;-57
2023/06/19 03:41:33;;;;;;;;;;;;;;;16.81;86.50;100428.30;102307;280;114569;-57
2023/06/19 03:44:12;;;;;;;;;;;;;;;17.84;85.18;100426.06;102316;280;93140;-57
2023/06/19 03:46:47;;;;;;;;;;;;;;;18.45;83.48;100426.69;102316;280;98017;-57
2023/06/19 03:49:21;;;;;;;;;;;;;;;19.41;81.91;100426.75;102331;280;118965;-58
2023/06/19 03:51:56;;;;;;;;;;;;;;;19.84;80.85;100425.33;102372;269;105689;-58
2023/06/19 03:54:32;;;;;;;;;;;;;;;20.43;79.35;100422.58;102362;280;113084;-55
2023/06/19 03:57:02;;;;;;;;;;;;;;;20.52;77.95;100422.02;102331;280;94466;-56
2023/06/19 03:59:38;;;;;;;;;;;;;;;20.12;77.05;100423.48;102449;280;97885;-59
2023/06/19 04:02:15;;;;;;;;;;;;;;;19.18;76.69;100419.41;102354;280;120598;-59
2023/06/19 04:04:57;;;;;;;;;;;;;;;18.39;76.66;100420.75;102384;280;106585;-59
2023/06/19 04:07:32;;;;;;;;;;;;;;;17.80;77.13;100421.98;102341;280;113900;-58
2023/06/19 04:10:05;;;;;;;;;;;;;;;17.53;77.28;100419.14;102309;280;93326;-59
2023/06/19 04:12:36;;;;;;;;;;;;;;;17.30;77.48;100419.43;102333;280;97654;-59
2023/06/19 04:15:08;;;;;;;;;;;;;;;17.14;77.94;100423.27;102345;280;118678;-58
2023/06/19 04:17:41;;;;;;;;;;;;;;;17.42;78.26;100428.99;102359;280;104722;-57
2023/06/19 04:20:16;;;;;;;;;;;;;;;18.58;78.23;100421.92;102315;280;114828;-59
2023/06/19 04:22:54;;;;;;;;;;;;;;;19.68;77.00;100422.67;102366;280;94402;-55
2023/06/19 04:25:27;;;;;;;;;;;;;;;20.82;75.75;100420.53;102319;280;96940;-55
2023/06/19 04:28:03;;;;;;;;;;;;;;;21.11;73.90;100421.84;102332;280;120337;-59
2023/06/19 04:30:39;;;;;;;;;;;;;;;21.41;73.31;100418.31;102251;269;107561;-59
2023/06/19 04:33:16;;;;;;;;;;;;;;;21.66;72.37;100421.63;102364;323;113853;-56
2023/06/19 04:35:48;;;;;;;;;;;;;;;21.25;72.27;100419.19;102376;280;94579;-57
2023/06/19 04:38:28;;;;;;;;;;;;;;;21.40;71.88;100419.63;102391;280;97487;-56
2023/06/19 04:41:04;;;;;;;;;;;;;;;21.32;71.51;100417.23;102408;280;120273;-56
2023/06/19 04:43:35;;;;;;;;;;;;;;;20.93;71.63;100416.48;102375;280;105855;-56
2023/06/19 04:46:08;;;;;;;;;;;;;;;21.04;71.49;100413.98;102353;280;114277;-58
2023/06/19 04:48:42;;;;;;;;;;;;;;;22.10;70.97;100416.48;102438;280;93352;-59
2023/06/19 04:51:15;;;;;;;;;;;;;;;23.67;69.62;100411.44;102466;280;97486;-58
2023/06/19 04:53:53;;;;;;;;;;;;;;;25.07;68.22;100408.26;102415;280;120952;-57
2023/06/19 04:56:31;;;;;;;;;;;;;;;26.32;66.31;100411.04;102303;280;105792;-57
2023/06/19 04:59:04;;;;;;;;;;;;;;;27.37;64.46;100403.70;102349;280;114924;-58
2023/06/19 05:01:40;;;;;;;;;;;;;;;28.29;62.34;100400.53;102298;280;94180;-58
2023/06/19 05:04:15;;;;;;;;;;;;;;;29.05;60.46;100398.07;102364;280;96215;-57
2023/06/19 05:06:50;;;;;;;;;;;;;;;29.78;58.62;100397.56;102307;280;120011;-57
2023/06/19 05:09:29;;;;;;;;;;;;;;;30.33;57.64;100397.53;102340;280;105090;-55
2023/06/19 05:12:05;;;;;;;;;;;;;;;31.04;55.55;100397.17;102318;280;115287;-56
2023/06/19 05:14:37;;;;;;;;;;;;;;;31.24;54.07;100403.58;102385;280;94697;-56
2023/06/19 05:17:09;;;;;;;;;;;;;;;31.38;53.11;100398.45;102326;280;97292;-58
2023/06/19 05:19:43;;;;;;;;;;;;;;;31.75;52.29;100397.05;102370;280;120412;-57
2023/06/19 05:22:18;;;;;;;;;;;;;;;32.24;50.69;100397.61;102409;280;105535;-57
2023/06/19 05:24:51;;;;;;;;;;;;;;;32.51;49.53;100400.63;102428;280;114235;-58
2023/06/19 05:27:25;;;;;;;;;;;;;;;32.92;48.61;100404.25;102363;269;94671;-56
2023/06/19 05:30:02;;;;;;;;;;;;;;;33.27;47.25;100404.82;102427;280;96707;-57
2023/06/19 05:32:33;;;;;;;;;;;;;;;33.68;45.21;100410.43;102364;280;121358;-60
2023/06/19 05:35:07;;;;;;;;;;;;;;;33.90;44.77;100420.21;102434;280;103592;-57
2023/06/19 05:37:52;;;;;;;;;;;;;;;33.97;44.67;100417.84;102397;269;114819;-63
2023/06/19 05:40:29;;;;;;;;;;;;;;;34.07;43.65;100419.13;102408;280;95095;-63
2023/06/19 05:43:04;;;;;;;;;;;;;;;34.35;42.72;100425.08;102359;280;97885;-59
2023/06/19 05:45:38;;;;;;;;;;;;;;;34.58;42.55;100431.19;102397;280;120819;-60
2023/06/19 05:48:14;;;;;;;;;;;;;;;34.89;41.85;100433.25;102368;280;105428;-59
2023/06/19 05:50:50;;;;;;;;;;;;;;;34.83;41.05;100436.63;102399;280;114787;-58
2023/06/19 05:53:25;;;;;;;;;;;;;;;35.03;40.53;100441.79;102403;280;94339;-57
2023/06/19 05:56:01;;;;;;;;;;;;;;;35.34;39.35;100439.07;102386;280;97730;-57
2023/06/19 05:58:37;;;;;;;;;;;;;;;35.30;39.04;100441.98;102443;280;120295;-58
2023/06/19 06:01:18;;;;;;;;;;;;;;;35.43;38.96;100450.58;102411;280;103941;-58
2023/06/19 06:03:56;;;;;;;;;;;;;;;34.98;38.67;100450.38;102402;280;115078;-57
2023/06/19 06:06:33;;;;;;;;;;;;;;;35.04;38.61;100449.55;102345;281;94025;-55
2023/06/19 06:09:08;;;;;;;;;;;;;;;34.98;37.96;100454.72;102410;280;97603;-56
2023/06/19 06:11:46;;;;;;;;;;;;;;;35.01;37.98;100454.33;102404;280;120377;-56
2023/06/19 06:14:24;;;;;;;;;;;;;;;35.41;37.62;100459.25;102438;280;105628;-56
2023/06/19 06:16:54;;;;;;;;;;;;;;;35.38;38.01;100463.43;102449;280;115060;-56
2023/06/19 06:19:29;;;;;;;;;;;;;;;35.81;36.96;100462.45;102453;269;94611;-56
2023/06/19 06:22:03;;;;;;;;;;;;;;;36.02;35.56;100465.64;102325;280;99372;-59
2023/06/19 06:24:33;;;;;;;;;;;;;;;36.35;34.87;100469.08;102436;280;121715;-59
2023/06/19 06:27:06;;;;;;;;;;;;;;;36.62;35.07;100473.46;102436;280;105596;-59
2023/06/19 06:29:43;;;;;;;;;;;;;;;36.87;34.61;100473.86;102423;280;114827;-55
2023/06/19 06:32:20;;;;;;;;;;;;;;;37.15;33.95;100474.35;102387;280;94804;-56
2023/06/19 06:34:57;;;;;;;;;;;;;;;36.90;33.86;100474.45;102427;280;97828;-56
2023/06/19 06:37:31;;;;;;;;;;;;;;;37.38;33.47;100471.48;102416;280;120567;-59
2023/06/19 06:40:01;;;;;;;;;;;;;;;37.74;33.23;100474.00;102440;280;106180;-60
2023/06/19 06:42:38;;;;;;;;;;;;;;;37.89;32.82;100474.90;102405;280;113947;-58
2023/06/19 06:45:09;;;;;;;;;;;;;;;37.62;32.45;100479.20;102354;280;94084;-59
2023/06/19 06:47:44;;;;;;;;;;;;;;;37.64;32.56;100475.77;102390;280;97740;-59
2023/06/19 06:50:18;;;;;;;;;;;;;;;37.44;32.52;100476.63;102405;280;120149;-56
2023/06/19 06:52:50;;;;;;;;;;;;;;;37.56;32.22;100479.08;102427;280;105804;-56
2023/06/19 06:55:24;;;;;;;;;;;;;;;37.72;31.14;100476.86;102395;280;114513;-56
2023/06/19 06:58:01;;;;;;;;;;;;;;;37.94;30.62;100476.30;102394;280;94292;-58
2023/06/19 07:00:40;;;;;;;;;;;;;;;37.97;30.63;100472.73;102405;280;97787;-58
2023/06/19 07:03:13;;;;;;;;;;;;;;;37.91;31.10;100473.33;102479;280;121733;-57
2023/06/19 07:05:48;;;;;;;;;;;;;;;38.20;30.45;100475.06;102452;280;105291;-57
2023/06/19 07:08:19;;;;;;;;;;;;;;;38.58;29.95;100465.73;102309;280;115102;-57
2023/06/19 07:10:56;;;;;;;;;;;;;;;38.49;29.43;100466.45;102399;280;94248;-56
2023/06/19 07:13:35;;;;;;;;;;;;;;;38.53;29.60;100465.58;102455;280;96523;-58
2023/06/19 07:16:13;;;;;;;;;;;;;;;38.50;28.63;100458.48;102345;280;119311;-59
2023/06/19 07:18:49;;;;;;;;;;;;;;;38.46;28.49;100456.48;102449;280;105827;-59
2023/06/19 07:21:28;;;;;;;;;;;;;;;38.72;28.67;100458.75;102403;280;114663;-60
2023/06/19 07:24:00;;;;;;;;;;;;;;;38.73;28.73;100456.26;102431;280;94700;-59
2023/06/19 07:26:35;;;;;;;;;;;;;;;38.69;28.52;100457.39;102381;277;98413;-59
2023/06/19 07:29:12;;;;;;;;;;;;;;;38.60;28.88;100460.52;102456;280;120616;-55
2023/06/19 07:31:50;;;;;;;;;;;;;;;38.54;28.93;100457.11;102333;280;105223;-56
2023/06/19 07:34:28;;;;;;;;;;;;;;;38.53;28.99;100457.98;102393;280;114564;-59
2023/06/19 07:37:03;;;;;;;;;;;;;;;38.71;29.10;100457.58;102335;280;94436;-58
2023/06/19 07:39:40;;;;;;;;;;;;;;;38.72;28.47;100458.02;102397;280;98062;-55
2023/06/19 07:42:20;;;;;;;;;;;;;;;38.29;28.47;100457.98;102374;280;121022;-56
2023/06/19 07:44:57;;;;;;;;;;;;;;;38.39;28.14;100458.70;102361;280;106003;-56
2023/06/19 07:47:36;;;;;;;;;;;;;;;38.03;28.29;100458.02;102358;280;113613;-54
2023/06/19 07:50:09;;;;;;;;;;;;;;;37.43;28.67;100460.95;102424;280;94208;-59
2023/06/19 07:52:42;;;;;;;;;;;;;;;37.72;29.28;100458.55;102417;280;97317;-57
2023/06/19 07:55:16;;;;;;;;;;;;;;;37.70;28.88;100461.52;102406;280;118236;-55
2023/06/19 07:57:53;;;;;;;;;;;;;;;37.67;28.88;100461.36;102366;280;105766;-59
2023/06/19 08:00:28;;;;;;;;;;;;;;;38.13;28.31;100465.16;102367;280;114575;-59
2023/06/19 08:03:03;;;;;;;;;;;;;;;38.09;28.58;100461.52;102351;280;94959;-58
2023/06/19 08:05:39;;;;;;;;;;;;;;;38.33;28.78;100467.45;102368;280;96841;-59
2023/06/19 08:08:14;;;;;;;;;;;;;;;38.20;28.12;100466.52;102354;280;119573;-58
2023/06/19 08:10:49;;;;;;;;;;;;;;;38.32;27.76;100464.50;102316;280;105030;-57
2023/06/19 08:13:32;;;;;;;;;;;;;;;38.37;27.72;100464.86;102334;280;114197;-55
2023/06/19 08:16:10;;;;;;;;;;;;;;;38.60;27.46;100461.51;102333;280;95246;-56
2023/06/19 08:18:47;;;;;;;;;;;;;;;38.51;27.49;100462.62;102367;280;97211;-59
2023/06/19 08:21:21;;;;;;;;;;;;;;;38.44;27.87;100458.79;102360;280;121234;-59
2023/06/19 08:23:54;;;;;;;;;;;;;;;38.61;27.68;100457.57;102364;280;105424;-59
2023/06/19 08:26:25;;;;;;;;;;;;;;;38.70;27.69;100454.99;102325;280;114245;-58
2023/06/19 08:28:56;;;;;;;;;;;;;;;38.54;27.99;100457.42;102335;280;94549;-55
2023/06/19 08:31:33;;;;;;;;;;;;;;;38.44;27.52;100459.91;102366;280;97025;-55
2023/06/19 08:34:09;;;;;;;;;;;;;;;38.44;27.46;100463.94;102398;280;121070;-62
2023/06/19 08:36:39;;;;;;;;;;;;;;;38.09;27.09;100463.96;102349;280;104741;-60
2023/06/19 08:39:15;;;;;;;;;;;;;;;37.82;26.92;100462.40;102340;280;114620;-56
2023/06/19 08:41:47;;;;;;;;;;;;;;;37.62;27.52;100466.33;102282;280;96658;-56
2023/06/19 08:44:25;;;;;;;;;;;;;;;37.54;27.30;100467.90;102371;280;96917;-60
2023/06/19 08:47:04;;;;;;;;;;;;;;;37.72;27.48;100466.05;102374;280;120588;-59
2023/06/19 08:49:44;;;;;;;;;;;;;;;37.61;27.30;100467.75;102407;280;106040;-56
2023/06/19 08:52:14;;;;;;;;;;;;;;;37.54;27.72;100468.63;102311;280;115037;-55
2023/06/19 08:54:46;;;;;;;;;;;;;;;37.55;27.81;100469.80;102265;280;95178;-57
2023/06/19 08:57:21;;;;;;;;;;;;;;;37.14;27.25;100468.54;102330;280;97284;-57
2023/06/19 09:00:05;;;;;;;;;;;;;;;36.44;27.18;100473.83;102334;280;122020;-55
2023/06/19 09:02:48;;;;;;;;;;;;;;;35.66;27.73;100476.84;102373;269;103915;-55
2023/06/19 09:05:33;;;;;;;;;;;;;;;35.16;29.06;100473.91;102340;280;112797;-55
2023/06/19 09:08:05;;;;;;;;;;;;;;;34.75;29.90;100474.33;102346;280;93938;-59
2023/06/19 09:10:37;;;;;;;;;;;;;;;34.61;30.02;100473.17;102380;280;98136;-59
2023/06/19 09:13:11;;;;;;;;;;;;;;;34.20;29.99;100466.84;102382;269;120482;-57
2023/06/19 09:15:44;;;;;;;;;;;;;;;33.73;30.11;100468.04;102376;280;105510;-56
2023/06/19 09:18:20;;;;;;;;;;;;;;;33.54;30.28;100464.71;102343;280;114407;-56
2023/06/19 09:20:57;;;;;;;;;;;;;;;33.28;29.75;100464.09;102329;280;94788;-56
2023/06/19 09:23:30;;;;;;;;;;;;;;;32.88;30.17;100462.25;102443;280;97980;-55
2023/06/19 09:26:03;;;;;;;;;;;;;;;32.50;31.00;100464.49;102231;280;120424;-55
2023/06/19 09:28:40;;;;;;;;;;;;;;;32.06;30.80;100463.41;102462;280;105533;-55
2023/06/19 09:31:18;;;;;;;;;;;;;;;31.71;31.50;100469.88;102468;280;114512;-55
2023/06/19 09:33:55;;;;;;;;;;;;;;;31.59;31.75;100472.87;102415;280;93976;-59
2023/06/19 09:36:35;;;;;;;;;;;;;;;31.74;32.74;100471.89;102470;280;98144;-58
2023/06/19 09:39:09;;;;;;;;;;;;;;;31.75;32.79;100468.44;102474;280;120536;-56
2023/06/19 09:41:51;;;;;;;;;;;;;;;31.72;33.29;100468.67;102457;280;105971;-56
2023/06/19 09:44:29;;;;;;;;;;;;;;;31.74;32.96;100461.28;102421;280;116121;-56
2023/06/19 09:47:10;;;;;;;;;;;;;;;31.53;33.11;100465.40;102353;280;92932;-56
2023/06/19 09:49:49;;;;;;;;;;;;;;;31.39;33.15;100465.35;102439;280;95960;-57
2023/06/19 09:52:28;;;;;;;;;;;;;;;30.75;32.84;100457.29;102409;280;120595;-57
2023/06/19 09:55:04;;;;;;;;;;;;;;;30.64;34.08;100459.56;102436;280;106054;-58
2023/06/19 09:57:41;;;;;;;;;;;;;;;30.88;34.16;100460.39;102363;280;114476;-57
2023/06/19 10:00:22;;;;;;;;;;;;;;;31.05;35.02;100456.02;102386;280;93908;-55
2023/06/19 10:02:57;;;;;;;;;;;;;;;31.14;35.17;100459.95;102441;308;96055;-56
2023/06/19 10:05:32;;;;;;;;;;;;;;;31.18;34.35;100454.11;102453;273;120410;-56
2023/06/19 10:08:05;;;;;;;;;;;;;;;31.14;34.34;100457.38;102472;280;103507;-58
2023/06/19 10:10:46;;;;;;;;;;;;;;;31.04;34.48;100454.43;102501;280;113722;-59
2023/06/19 10:13:31;;;;;;;;;;;;;;;30.96;34.26;100454.04;102474;280;93631;-55
2023/06/19 10:16:20;;;;;;;;;;;;;;;30.96;34.32;100446.06;102450;280;97007;-55
2023/06/19 10:18:54;;;;;;;;;;;;;;;30.98;34.70;100445.71;102437;280;120815;-55
2023/06/19 10:21:24;;;;;;;;;;;;;;;31.06;34.39;100448.97;102402;280;103870;-56
2023/06/19 10:24:02;;;;;;;;;;;;;;;31.03;34.26;100451.67;102380;280;113419;-58
2023/06/19 10:26:39;;;;;;;;;;;;;;;30.94;34.07;100445.90;102399;280;94708;-57
2023/06/19 10:29:16;;;;;;;;;;;;;;;30.57;34.37;100445.13;102435;280;97364;-59
2023/06/19 10:31:50;;;;;;;;;;;;;;;30.65;34.86;100449.83;102419;280;119737;-59
2023/06/19 10:34:24;;;;;;;;;;;;;;;30.56;34.45;100447.35;102445;280;104445;-58
2023/06/19 10:36:59;;;;;;;;;;;;;;;30.73;34.81;100442.29;102357;280;113862;-59
2023/06/19 10:39:28;;;;;;;;;;;;;;;30.90;34.78;100436.58;102399;280;95433;-57
2023/06/19 10:42:00;;;;;;;;;;;;;;;31.01;34.93;100436.75;102413;280;97486;-57
2023/06/19 10:44:31;;;;;;;;;;;;;;;31.16;34.74;100437.98;102284;280;121981;-57
2023/06/19 10:47:07;;;;;;;;;;;;;;;31.22;34.74;100438.41;102413;280;105791;-58
2023/06/19 10:49:40;;;;;;;;;;;;;;;31.20;34.29;100437.70;102426;280;113573;-58
2023/06/19 10:52:19;;;;;;;;;;;;;;;31.12;34.30;100431.63;102416;280;94923;-57
2023/06/19 10:55:00;;;;;;;;;;;;;;;31.13;34.48;100430.66;102409;280;96153;-55
2023/06/19 10:57:49;;;;;;;;;;;;;;;31.33;34.77;100432.55;102487;280;119897;-55
2023/06/19 11:00:33;;;;;;;;;;;;;;;31.41;34.42;100429.95;102302;280;106351;-59
2023/06/19 11:03:04;;;;;;;;;;;;;;;31.42;34.10;100432.14;102418;280;113738;-55
2023/06/19 11:05:44;;;;;;;;;;;;;;;31.20;33.65;100428.09;102430;280;94122;-56
2023/06/19 11:08:19;;;;;;;;;;;;;;;31.30;34.31;100426.38;102428;280;97723;-56
2023/06/19 11:10:53;;;;;;;;;;;;;;;31.57;34.77;100420.52;102393;280;120386;-56
2023/06/19 11:13:29;;;;;;;;;;;;;;;31.76;34.83;100419.96;102410;280;105468;-55
2023/06/19 11:16:03;;;;;;;;;;;;;;;31.83;34.21;100419.48;102404;280;113907;-56
2023/06/19 11:18:41;;;;;;;;;;;;;;;31.70;34.13;100419.60;101823;280;755942;-56
2023/06/19 11:21:17;;;;;;;;;;;;;;;31.68;34.30;100419.27;102307;280;98489;-55
2023/06/19 11:23:50;;;;;;;;;;;;;;;31.71;34.39;100415.10;102382;280;120272;-58
2023/06/19 11:26:27;;;;;;;;;;;;;;;31.70;34.10;100412.23;102405;280;103857;-57
2023/06/19 11:29:16;;;;;;;;;;;;;;;31.47;34.12;100410.95;102347;280;114805;-57
2023/06/19 11:31:47;;;;;;;;;;;;;;;31.07;34.44;100415.52;102390;280;93849;-57
2023/06/19 11:34:18;;;;;;;;;;;;;;;30.51;34.71;100412.70;102457;280;97082;-55
2023/06/19 11:36:59;;;;;;;;;;;;;;;30.55;35.19;100413.56;102254;280;122687;-55
2023/06/19 11:39:35;;;;;;;;;;;;;;;30.46;34.76;100417.39;102296;280;104848;-59
2023/06/19 11:42:08;;;;;;;;;;;;;;;30.39;35.09;100416.29;102431;280;113693;-59
2023/06/19 11:44:58;;;;;;;;;;;;;;;30.39;35.26;100410.45;102445;280;94963;-59
2023/06/19 11:47:39;;;;;;;;;;;;;;;30.15;35.60;100414.73;102395;269;98178;-58
2023/06/19 11:50:21;;;;;;;;;;;;;;;29.94;36.23;100414.14;102319;280;120471;-58
2023/06/19 11:52:57;;;;;;;;;;;;;;;29.55;36.31;100408.75;102413;280;104885;-57
2023/06/19 11:55:34;;;;;;;;;;;;;;;29.13;36.40;100410.46;102322;280;115254;-59
2023/06/19 11:58:07;;;;;;;;;;;;;;;28.90;36.61;100404.92;102377;280;95262;-58
2023/06/19 12:00:41;;;;;;;;;;;;;;;28.69;36.73;100403.40;102364;280;97577;-57
2023/06/19 12:03:11;;;;;;;;;;;;;;;28.42;37.23;100405.02;102361;280;120857;-58
2023/06/19 12:05:53;;;;;;;;;;;;;;;28.23;37.46;100404.94;102355;280;106295;-58
2023/06/19 12:08:34;;;;;;;;;;;;;;;28.19;38.17;100405.63;102371;280;113756;-58
2023/06/19 12:11:05;;;;;;;;;;;;;;;28.16;39.27;100406.90;102316;280;93308;-58
2023/06/19 12:13:44;;;;;;;;;;;;;;;28.12;39.69;100405.65;102373;280;97288;-58
2023/06/19 12:16:19;;;;;;;;;;;;;;;28.17;40.03;100409.84;102324;280;119616;-58
2023/06/19 12:18:54;;;;;;;;;;;;;;;28.28;39.80;100404.91;102357;280;103802;-58
2023/06/19 12:21:29;;;;;;;;;;;;;;;28.62;39.71;100399.69;102384;280;112622;-58
2023/06/19 12:24:03;;;;;;;;;;;;;;;29.01;39.07;100402.02;102405;280;94610;-56
2023/06/19 12:26:36;;;;;;;;;;;;;;;29.20;37.87;100401.15;102373;280;96991;-56
2023/06/19 12:29:10;;;;;;;;;;;;;;;29.38;37.03;100398.33;102438;280;119505;-56
2023/06/19 12:31:44;;;;;;;;;;;;;;;29.44;37.03;100392.88;102401;280;105386;-56
2023/06/19 12:34:18;;;;;;;;;;;;;;;29.64;37.11;100390.33;102397;280;113850;-57
2023/06/19 12:36:52;;;;;;;;;;;;;;;29.83;37.41;100395.23;102388;280;94809;-56
2023/06/19 12:39:27;;;;;;;;;;;;;;;30.07;37.05;100394.17;102360;280;96576;-56
2023/06/19 12:42:05;;;;;;;;;;;;;;;30.12;35.95;100391.36;102331;280;118456;-57
2023/06/19 12:44:39;;;;;;;;;;;;;;;30.13;35.56;100391.02;102418;280;105433;-58
2023/06/19 12:47:12;;;;;;;;;;;;;;;30.05;35.67;100390.70;102358;280;113402;-59
2023/06/19 12:49:48;;;;;;;;;;;;;;;30.03;35.54;100388.53;102311;280;94847;-59
2023/06/19 12:52:21;;;;;;;;;;;;;;;29.97;35.04;100381.67;102363;280;97966;-59
2023/06/19 12:54:59;;;;;;;;;;;;;;;29.61;35.03;100377.66;102344;280;119654;-54
2023/06/19 12:57:36;;;;;;;;;;;;;;;29.14;35.26;100373.80;102345;280;105896;-54
2023/06/19 13:00:08;;;;;;;;;;;;;;;28.91;35.86;100375.35;102310;280;114835;-55
2023/06/19 13:02:46;;;;;;;;;;;;;;;28.81;36.44;100373.70;102376;280;94264;-60
2023/06/19 13:05:23;;;;;;;;;;;;;;;28.76;37.17;100376.08;102379;280;97076;-59
2023/06/19 13:07:57;;;;;;;;;;;;;;;28.59;37.27;100378.19;102358;280;120854;-65
2023/06/19 13:10:36;;;;;;;;;;;;;;;28.36;37.47;100377.03;102397;280;105377;-66
2023/06/19 13:13:11;;;;;;;;;;;;;;;28.27;37.80;100377.59;102433;280;112301;-64